CTN6 weather

Treherne (South Norfolk Airpark) Airport
Treherne, Manitoba, Canada

Public forecast

Using degrees Celsius for public forecast. Weather courtesy of forecast.io.

Closest aviation weather report (METAR) to Treherne (South Norfolk Airpark) Airport

Report is more than 6 hours old.

Closest report is Southport Airport, 21.1 nm (39.0 km) NE. Retrieved 2019/12/05 23:00 UTC (6 hours ago):

CYPG 052300Z 33010KT 6SM -SN FEW015 OVC021 M08/M11 A3019 RMK SC2SC6 LAST OBS/NEXT 061200 UTC SLP243

Closest aviation forecast (TAF) to Treherne (South Norfolk Airpark) Airport

Forecast is more than 6 hours old.

Closest forecast is Southport Airport, 21.1 nm (39.0 km) NE. Retrieved 2019/12/05 18:33 UTC (11 hours ago):

TAF TAF CYPG 051730Z 0518/0606 33015G25KT P6SM SCT012 OVC030 TEMPO 0518/0519 5SM -SN BKN012 OVC030 FM051900 33012G22KT P6SM FEW012 OVC030 TEMPO 0519/0522 BKN012 OVC030 FM052200 33012G22KT P6SM BKN025 TEMPO 0522/0606 BKN020 BECMG 0523/0601 30005KT RMK NXT FCST BY 060000Z